createdAt,value
2023-05-25T00:02:05.251Z,5.90
2023-05-25T00:06:07.464Z,5.96
2023-05-25T00:10:09.536Z,5.93
2023-05-25T00:14:11.606Z,5.93
2023-05-25T00:18:13.900Z,5.96
2023-05-25T00:22:16.084Z,5.95
2023-05-25T00:26:18.145Z,5.84
2023-05-25T00:30:20.457Z,5.81
2023-05-25T00:34:22.953Z,5.81
2023-05-25T00:38:25.019Z,5.85
2023-05-25T00:42:28.131Z,5.85
2023-05-25T00:46:31.078Z,5.84
2023-05-25T00:50:41.862Z,5.82
2023-05-25T00:54:47.871Z,5.81
2023-05-25T00:58:53.780Z,5.80
2023-05-25T01:02:59.356Z,5.79
2023-05-25T01:07:03.532Z,5.82
2023-05-25T01:11:07.377Z,5.81
2023-05-25T01:15:10.172Z,5.74
2023-05-25T01:19:12.379Z,5.74
2023-05-25T01:23:17.575Z,5.72
2023-05-25T01:27:25.035Z,5.67
2023-05-25T01:31:28.200Z,5.65
2023-05-25T01:35:31.336Z,5.66
2023-05-25T01:39:33.396Z,5.65
2023-05-25T01:43:36.631Z,5.64
2023-05-25T01:47:44.102Z,5.65
2023-05-25T01:52:16.105Z,5.66
2023-05-25T01:56:20.696Z,5.60
2023-05-25T02:00:23.174Z,5.59
2023-05-25T02:04:26.317Z,5.62
2023-05-25T02:08:29.715Z,5.59
2023-05-25T02:12:35.169Z,5.57
2023-05-25T02:16:37.267Z,5.52
2023-05-25T02:20:39.767Z,5.50
2023-05-25T02:24:41.873Z,5.51
2023-05-25T02:28:43.932Z,5.35
2023-05-25T02:32:46.141Z,5.30
2023-05-25T02:36:48.456Z,5.28
2023-05-25T02:40:50.602Z,5.24
2023-05-25T02:44:55.299Z,5.24
2023-05-25T02:48:58.952Z,5.26
2023-05-25T02:53:01.470Z,5.29
2023-05-25T02:57:04.711Z,5.29
2023-05-25T03:01:10.409Z,5.26
2023-05-25T03:05:16.256Z,5.24
2023-05-25T03:09:19.491Z,5.25
2023-05-25T03:13:24.238Z,5.24
2023-05-25T03:17:26.600Z,5.17
2023-05-25T03:21:28.987Z,5.13
2023-05-25T03:25:31.369Z,5.16
2023-05-25T03:29:35.246Z,5.19
2023-05-25T03:33:38.366Z,5.08
2023-05-25T03:37:40.580Z,5.02
2023-05-25T03:41:44.353Z,4.90
2023-05-25T03:45:47.217Z,4.87
2023-05-25T03:49:49.674Z,4.90
2023-05-25T03:53:51.816Z,5.04
2023-05-25T03:57:53.932Z,5.20
2023-05-25T04:01:56.593Z,5.29
2023-05-25T04:06:00.452Z,5.78
2023-05-25T04:10:03.735Z,6.45
2023-05-25T04:14:05.799Z,7.36
2023-05-25T04:18:11.380Z,8.36
2023-05-25T04:22:13.590Z,9.66
2023-05-25T04:32:14.519Z,12.39
2023-05-25T04:36:32.611Z,13.30
2023-05-25T04:40:36.422Z,14.34
2023-05-25T04:44:39.995Z,14.73
2023-05-25T04:48:43.708Z,13.71
2023-05-25T04:52:45.886Z,14.05
2023-05-25T04:56:48.919Z,15.47
2023-05-25T05:00:52.577Z,13.71
2023-05-25T05:04:55.161Z,12.98
2023-05-25T05:08:58.386Z,13.30
2023-05-25T05:13:00.527Z,14.58
2023-05-25T05:17:03.407Z,17.06
2023-05-25T05:21:05.717Z,15.65
2023-05-25T05:25:09.637Z,13.85
2023-05-25T05:29:12.136Z,12.50
2023-05-25T05:33:14.755Z,11.87
2023-05-25T05:37:21.828Z,15.13
2023-05-25T05:41:24.036Z,18.50
2023-05-25T05:45:26.485Z,21.15
2023-05-25T05:49:32.241Z,22.93
2023-05-25T05:53:36.442Z,24.11
2023-05-25T05:57:38.570Z,24.89
2023-05-25T06:01:42.621Z,25.63
2023-05-25T06:05:45.253Z,26.86
2023-05-25T06:09:47.623Z,26.65
2023-05-25T06:13:50.034Z,23.96
2023-05-25T06:17:52.596Z,22.04
2023-05-25T06:21:56.042Z,19.69
2023-05-25T06:26:02.915Z,18.14
2023-05-25T06:30:06.283Z,17.73
2023-05-25T06:34:08.570Z,18.17
2023-05-25T06:38:12.188Z,20.48
2023-05-25T06:42:14.338Z,22.90
2023-05-25T06:46:26.736Z,23.96
2023-05-25T06:50:28.942Z,23.76
2023-05-25T06:54:30.991Z,23.66
2023-05-25T06:58:33.124Z,22.90
2023-05-25T07:02:35.227Z,23.41
2023-05-25T07:06:37.339Z,24.06
2023-05-25T07:10:39.371Z,24.11
2023-05-25T07:14:41.523Z,20.06
2023-05-25T07:18:43.722Z,16.63
2023-05-25T07:22:47.181Z,14.85
2023-05-25T07:26:49.890Z,14.00
2023-05-25T07:30:51.993Z,13.52
2023-05-25T07:34:54.086Z,13.29
2023-05-25T07:38:56.276Z,13.20
2023-05-25T07:42:58.466Z,13.01
2023-05-25T07:47:00.579Z,13.20
2023-05-25T07:51:02.833Z,13.58
2023-05-25T07:55:06.995Z,13.88
2023-05-25T07:59:10.084Z,13.85
2023-05-25T08:03:12.369Z,13.83
2023-05-25T08:07:14.581Z,14.12
2023-05-25T08:11:17.114Z,14.41
2023-05-25T08:15:19.201Z,13.95
2023-05-25T08:19:21.381Z,13.63
2023-05-25T08:23:23.860Z,13.44
2023-05-25T08:27:26.009Z,13.28
2023-05-25T08:31:28.170Z,13.09
2023-05-25T08:35:30.344Z,13.08
2023-05-25T08:40:23.040Z,13.28
2023-05-25T08:44:26.979Z,13.37
2023-05-25T08:48:40.223Z,13.27
2023-05-25T08:52:46.990Z,13.19
2023-05-25T08:56:52.252Z,13.14
2023-05-25T09:00:58.480Z,13.15
2023-05-25T09:05:02.063Z,13.22
2023-05-25T09:09:29.126Z,13.28
2023-05-25T09:13:31.401Z,13.66
2023-05-25T09:17:35.308Z,13.92
2023-05-25T09:22:41.981Z,14.06
2023-05-25T09:26:48.765Z,14.37
2023-05-25T09:30:50.972Z,14.25
2023-05-25T09:34:55.244Z,13.96
2023-05-25T09:38:57.481Z,13.77
2023-05-25T09:42:59.774Z,13.90
2023-05-25T09:47:02.521Z,13.96
2023-05-25T09:51:07.014Z,14.16
2023-05-25T09:55:10.406Z,14.25
2023-05-25T09:59:12.532Z,14.16
2023-05-25T10:03:15.888Z,14.17
2023-05-25T10:07:18.693Z,14.26
2023-05-25T10:11:22.715Z,14.44
2023-05-25T10:15:26.159Z,14.35
2023-05-25T10:19:33.315Z,14.38
2023-05-25T10:23:44.582Z,14.48
2023-05-25T10:27:59.813Z,14.51
2023-05-25T10:32:03.736Z,14.53
2023-05-25T10:36:10.863Z,14.57
2023-05-25T10:40:15.252Z,14.56
2023-05-25T10:44:18.712Z,14.75
2023-05-25T10:48:20.847Z,14.73
2023-05-25T10:52:27.061Z,14.73
2023-05-25T10:56:29.147Z,14.98
2023-05-25T11:00:31.960Z,15.31
2023-05-25T11:04:37.397Z,15.53
2023-05-25T11:09:06.457Z,15.44
2023-05-25T11:13:37.871Z,15.55
2023-05-25T11:17:46.716Z,15.68
2023-05-25T11:21:49.348Z,15.62
2023-05-25T11:25:51.383Z,15.39
2023-05-25T11:29:54.952Z,15.61
2023-05-25T11:33:58.316Z,15.62
2023-05-25T11:38:01.286Z,15.56
2023-05-25T11:42:06.677Z,15.64
2023-05-25T11:46:12.608Z,15.70
2023-05-25T11:50:17.642Z,15.91
2023-05-25T11:54:30.275Z,15.95
2023-05-25T11:58:35.797Z,15.90
2023-05-25T12:02:39.139Z,15.95
2023-05-25T12:06:41.348Z,16.06
2023-05-25T12:10:51.384Z,16.13
2023-05-25T12:14:53.474Z,16.15
2023-05-25T12:18:56.280Z,16.20
2023-05-25T12:22:58.391Z,16.25
2023-05-25T12:27:02.318Z,16.35
2023-05-25T12:31:24.053Z,16.31
2023-05-25T12:35:26.351Z,16.52
2023-05-25T12:39:34.837Z,16.58
2023-05-25T12:43:38.845Z,16.54
2023-05-25T12:47:45.825Z,16.58
2023-05-25T12:51:47.861Z,16.49
2023-05-25T12:55:49.948Z,16.43
2023-05-25T12:59:56.210Z,16.55
2023-05-25T13:03:58.299Z,16.64
2023-05-25T13:08:01.752Z,16.71
2023-05-25T13:12:04.556Z,16.71
2023-05-25T13:16:07.510Z,16.74
2023-05-25T13:20:14.347Z,16.65
2023-05-25T13:24:16.661Z,16.83
2023-05-25T13:28:18.713Z,16.95
2023-05-25T13:32:20.858Z,16.99
2023-05-25T13:36:22.934Z,17.07
2023-05-25T13:40:24.958Z,17.16
2023-05-25T13:44:27.114Z,17.23
2023-05-25T13:48:30.006Z,17.13
2023-05-25T13:52:32.136Z,17.15
2023-05-25T13:56:34.229Z,17.18
2023-05-25T14:00:36.400Z,17.11
2023-05-25T14:04:38.846Z,17.18
2023-05-25T14:08:40.917Z,17.23
2023-05-25T14:12:43.120Z,17.23
2023-05-25T14:16:45.207Z,17.21
2023-05-25T14:20:47.522Z,17.23
2023-05-25T14:24:49.665Z,17.24
2023-05-25T14:28:51.881Z,17.27
2023-05-25T14:32:54.035Z,17.37
2023-05-25T14:36:56.167Z,17.29
2023-05-25T14:40:58.931Z,17.31
2023-05-25T14:45:01.054Z,17.31
2023-05-25T14:49:03.125Z,17.32
2023-05-25T14:53:05.625Z,17.28
2023-05-25T14:57:07.692Z,17.31
2023-05-25T15:01:09.828Z,17.25
2023-05-25T15:05:11.835Z,17.25
2023-05-25T15:09:15.745Z,17.25
2023-05-25T15:13:18.635Z,17.36
2023-05-25T15:17:20.683Z,17.34
2023-05-25T15:21:23.095Z,17.37
2023-05-25T15:29:33.548Z,17.39
2023-05-25T15:33:50.202Z,17.39
2023-05-25T15:37:56.198Z,17.49
2023-05-25T15:41:58.377Z,17.30
2023-05-25T15:46:00.527Z,17.32
2023-05-25T15:50:02.657Z,17.29
2023-05-25T15:54:04.887Z,17.33
2023-05-25T15:58:07.073Z,17.35
2023-05-25T16:02:09.253Z,17.30
2023-05-25T16:06:11.544Z,17.25
2023-05-25T16:10:13.622Z,17.26
2023-05-25T16:14:15.774Z,17.13
2023-05-25T16:18:17.901Z,17.12
2023-05-25T16:22:19.989Z,17.15
2023-05-25T16:26:22.430Z,17.11
2023-05-25T16:30:24.556Z,17.06
2023-05-25T16:34:26.805Z,16.98
2023-05-25T16:38:28.985Z,16.91
2023-05-25T16:42:31.077Z,16.84
2023-05-25T16:46:33.381Z,16.84
2023-05-25T16:50:35.436Z,16.85
2023-05-25T16:54:37.493Z,16.83
2023-05-25T16:58:39.545Z,16.73
2023-05-25T17:02:41.735Z,16.63
2023-05-25T17:06:43.813Z,16.50
2023-05-25T17:10:49.258Z,16.40
2023-05-25T17:14:51.349Z,16.35
2023-05-25T17:18:53.442Z,16.29
2023-05-25T17:22:55.964Z,16.20
2023-05-25T17:26:58.064Z,16.13
2023-05-25T17:31:00.240Z,16.04
2023-05-25T17:35:02.461Z,15.94
2023-05-25T17:39:05.662Z,15.89
2023-05-25T17:43:07.908Z,15.80
2023-05-25T17:47:11.169Z,15.76
2023-05-25T17:51:13.993Z,15.68
2023-05-25T17:55:16.094Z,15.61
2023-05-25T17:59:18.265Z,15.44
2023-05-25T18:03:20.401Z,15.34
2023-05-25T18:07:22.710Z,15.22
2023-05-25T18:11:26.040Z,15.09
2023-05-25T18:15:28.114Z,14.97
2023-05-25T18:19:30.237Z,14.88
2023-05-25T18:23:32.292Z,14.79
2023-05-25T18:27:34.390Z,14.70
2023-05-25T18:31:36.581Z,14.61
2023-05-25T18:35:39.162Z,14.48
2023-05-25T18:39:41.498Z,14.31
2023-05-25T18:43:43.532Z,14.17
2023-05-25T18:47:45.934Z,14.04
2023-05-25T18:51:47.998Z,13.88
2023-05-25T18:55:50.070Z,13.75
2023-05-25T18:59:52.149Z,13.60
2023-05-25T19:03:56.717Z,13.52
2023-05-25T19:08:00.654Z,13.41
2023-05-25T19:12:04.638Z,13.31
2023-05-25T19:22:06.625Z,13.05
2023-05-25T19:26:08.744Z,12.91
2023-05-25T19:30:11.198Z,12.84
2023-05-25T19:34:39.871Z,12.68
2023-05-25T19:38:42.495Z,12.58
2023-05-25T19:42:44.948Z,12.45
2023-05-25T19:46:47.123Z,12.33
2023-05-25T19:50:49.189Z,12.09
2023-05-25T19:54:51.350Z,11.94
2023-05-25T19:58:53.523Z,11.88
2023-05-25T20:02:55.899Z,11.77
2023-05-25T20:06:58.086Z,11.84
2023-05-25T20:11:00.166Z,11.80
2023-05-25T20:15:02.276Z,11.76
2023-05-25T20:19:07.348Z,11.69
2023-05-25T20:23:09.771Z,11.62
2023-05-25T20:27:13.173Z,11.49
2023-05-25T20:31:15.267Z,11.53
2023-05-25T20:35:17.425Z,11.57
2023-05-25T20:39:19.616Z,11.58
2023-05-25T20:43:21.746Z,11.45
2023-05-25T20:47:23.922Z,11.39
2023-05-25T20:51:26.015Z,11.30
2023-05-25T20:55:28.611Z,11.23
2023-05-25T20:59:31.629Z,11.18
2023-05-25T21:03:34.146Z,11.11
2023-05-25T21:07:36.400Z,11.11
2023-05-25T21:11:38.465Z,11.04
2023-05-25T21:15:40.797Z,10.97
2023-05-25T21:19:42.894Z,10.88
2023-05-25T21:23:44.971Z,10.82
2023-05-25T21:27:47.097Z,10.75
2023-05-25T21:31:49.490Z,10.68
2023-05-25T21:35:51.979Z,10.62
2023-05-25T21:39:54.071Z,10.57
2023-05-25T21:43:56.165Z,10.55
2023-05-25T21:47:58.266Z,10.52
2023-05-25T21:52:00.388Z,10.48
2023-05-25T21:56:02.558Z,10.43
2023-05-25T22:00:06.463Z,10.43
2023-05-25T22:04:14.530Z,10.38
2023-05-25T22:08:16.584Z,10.33
2023-05-25T22:12:20.178Z,10.28
2023-05-25T22:16:22.351Z,10.31
2023-05-25T22:20:24.586Z,10.32
2023-05-25T22:24:26.657Z,10.28
2023-05-25T22:28:28.738Z,10.21
2023-05-25T22:32:30.881Z,10.15
2023-05-25T22:36:32.980Z,10.07
2023-05-25T22:40:35.290Z,9.94
2023-05-25T22:44:37.689Z,9.83
2023-05-25T22:48:40.606Z,9.75
2023-05-25T22:52:43.035Z,9.67
2023-05-25T22:56:45.653Z,9.64
2023-05-25T23:00:47.697Z,9.63
2023-05-25T23:04:49.792Z,9.51
2023-05-25T23:08:51.827Z,9.45
2023-05-25T23:12:54.681Z,9.46
2023-05-25T23:16:56.802Z,9.43
2023-05-25T23:20:58.852Z,9.45
2023-05-25T23:25:01.082Z,9.44
2023-05-25T23:29:03.180Z,9.40
2023-05-25T23:33:08.180Z,9.32
2023-05-25T23:37:10.660Z,9.24
2023-05-25T23:41:12.853Z,9.23
2023-05-25T23:45:14.920Z,9.18
2023-05-25T23:49:17.007Z,9.12
2023-05-25T23:53:19.095Z,9.02
2023-05-25T23:57:21.117Z,8.94
